Mullan Pass, MT

11:45 PM MDT on April 24, 2017 (GMT -0600)
Mullan Pass | | Change Station

Elev 6027 ft 47.45 °N, 115.68 °W | Updated 17 minutes ago

Overcast
Overcast
30 °F
Feels Like 25 °F
N
5
Wind Variable Wind from NNW

Today
High -- | Low -- °F
--% Chance of Precip.
Yesterday
High -- | Low -- °F
Precip. -- in
Pressure 29.71 in
Visibility 1.8 miles
Clouds Overcast 200 ft
Windchill 25 °F
Dew Point 30 °F
Humidity 100%
Rainfall 0.25 in
Snow Depth Not available.
6:37 AM 8:45 PM
Waning Crescent, 2% visible
SPECI KMLP 250528Z AUTO 33004KT 1 3/4SM BR OVC002 M01/M01 A2971 RMK AO2 VIS 1 1/4V3 T10111011 TSNO
Pressure 29.71 in
Visibility 1.8 miles
Clouds Overcast 200 ft
Windchill 25 °F
Dew Point 30 °F
Humidity 100%
Rainfall 0.25 in
Snow Depth Not available.
6:37 AM 8:45 PM
Waning Crescent, 2% visible
SPECI KMLP 250528Z AUTO 33004KT 1 3/4SM BR OVC002 M01/M01 A2971 RMK AO2 VIS 1 1/4V3 T10111011 TSNO

Get Severe Weather Alerts

Thanks for signing up!

Be on the lookout for a verification email in your inbox.

You'll start receiving the daily forecast at 8 AM.

×

10-Day Weather Forecast

Almanac

Astronomy

Apr. 24, 2017 Rise Set
Actual Time
Civil Twilight
Nautical Twilight
Astronomical Twilight
Moon
Length of Visible Light
Length of Day
Tomorrow will be .
, % of the Moon is Illuminated

Today's Extremes

State Highs State Lows

Community

WunderPhotos

WunderBlog® & News

Nearby

Air Quality

  Air Quality AQ Index Pollutant
Not available.

Snow Depth

Station Depth Elevation

Earthquake Activity

City Distance Mag. Time & Date
Minimum magnitude displayed is 2.5.

Coastal Water Temperatures

Place Temperature

Stations

Nearby Weather Stations

Station Location Temp. Windchill Dew Point Humidity Wind Precip. Elev Updated Type
                   

Watches & Warnings

There are currently no watches in effect.